createdAt,value
2022-08-19T00:00:57.268Z,98694.00
2022-08-19T00:01:57.254Z,98692.00
2022-08-19T00:02:57.271Z,98694.00
2022-08-19T00:03:57.298Z,98694.00
2022-08-19T00:04:57.405Z,98693.00
2022-08-19T00:05:57.297Z,98692.00
2022-08-19T00:06:57.335Z,98696.00
2022-08-19T00:07:57.362Z,98692.00
2022-08-19T00:08:57.384Z,98686.00
2022-08-19T00:09:57.427Z,98687.00
2022-08-19T00:10:57.415Z,98692.00
2022-08-19T00:11:57.446Z,98690.00
2022-08-19T00:12:57.491Z,98687.00
2022-08-19T00:13:57.608Z,98687.00
2022-08-19T00:14:57.503Z,98685.00
2022-08-19T00:15:57.525Z,98683.00
2022-08-19T00:16:57.532Z,98681.00
2022-08-19T00:17:57.556Z,98678.00
2022-08-19T00:18:57.557Z,98674.00
2022-08-19T00:19:57.579Z,98670.00
2022-08-19T00:20:57.553Z,98672.00
2022-08-19T00:21:57.576Z,98666.00
2022-08-19T00:22:57.600Z,98670.00
2022-08-19T00:23:57.624Z,98668.00
2022-08-19T00:24:57.668Z,98667.00
2022-08-19T00:25:57.674Z,98666.00
2022-08-19T00:26:57.692Z,98669.00
2022-08-19T00:27:57.717Z,98668.00
2022-08-19T00:28:57.723Z,98668.00
2022-08-19T00:29:57.779Z,98666.00
2022-08-19T00:30:57.743Z,98666.00
2022-08-19T00:31:57.764Z,98667.00
2022-08-19T00:32:57.802Z,98664.00
2022-08-19T00:33:57.821Z,98658.00
2022-08-19T00:34:57.854Z,98659.00
2022-08-19T00:35:57.874Z,98658.00
2022-08-19T00:36:57.860Z,98653.00
2022-08-19T00:37:57.904Z,98657.00
2022-08-19T00:38:57.921Z,98658.00
2022-08-19T00:39:58.003Z,98659.00
2022-08-19T00:40:57.931Z,98659.00
2022-08-19T00:41:57.915Z,98658.00
2022-08-19T00:42:58.000Z,98658.00
2022-08-19T00:43:57.956Z,98654.00
2022-08-19T00:44:57.988Z,98656.00
2022-08-19T00:45:57.970Z,98659.00
2022-08-19T00:46:58.758Z,98655.00
2022-08-19T00:47:58.032Z,98657.00
2022-08-19T00:48:58.009Z,98655.00
2022-08-19T00:49:58.068Z,98649.00
2022-08-19T00:50:58.037Z,98651.00
2022-08-19T00:51:58.058Z,98651.00
2022-08-19T00:52:58.099Z,98649.00
2022-08-19T00:53:58.137Z,98651.00
2022-08-19T00:54:58.114Z,98655.00
2022-08-19T00:55:58.119Z,98654.00
2022-08-19T00:56:58.127Z,98656.00
2022-08-19T00:57:58.166Z,98658.00
2022-08-19T00:58:58.139Z,98657.00
2022-08-19T01:00:02.506Z,98663.00
2022-08-19T01:00:58.212Z,98664.00
2022-08-19T01:01:58.264Z,98661.00
2022-08-19T01:02:58.180Z,98663.00
2022-08-19T01:03:58.817Z,98661.00
2022-08-19T01:04:58.209Z,98658.00
2022-08-19T01:05:58.203Z,98656.00
2022-08-19T01:06:58.217Z,98653.00
2022-08-19T01:07:58.231Z,98655.00
2022-08-19T01:08:58.254Z,98653.00
2022-08-19T01:09:58.272Z,98660.00
2022-08-19T01:10:58.278Z,98655.00
2022-08-19T01:11:58.258Z,98657.00
2022-08-19T01:12:58.270Z,98656.00
2022-08-19T01:13:58.293Z,98658.00
2022-08-19T01:14:58.334Z,98659.00
2022-08-19T01:15:58.344Z,98653.00
2022-08-19T01:16:58.327Z,98654.00
2022-08-19T01:17:58.325Z,98651.00
2022-08-19T01:18:58.358Z,98648.00
2022-08-19T01:19:58.358Z,98649.00
2022-08-19T01:20:58.394Z,98648.00
2022-08-19T01:21:58.367Z,98644.00
2022-08-19T01:22:58.405Z,98642.00
2022-08-19T01:23:58.644Z,98635.00
2022-08-19T01:24:58.447Z,98636.00
2022-08-19T01:25:58.469Z,98635.00
2022-08-19T01:26:58.478Z,98635.00
2022-08-19T01:28:01.646Z,98637.00
2022-08-19T01:29:00.746Z,98636.00
2022-08-19T01:29:58.540Z,98638.00
2022-08-19T01:30:58.604Z,98641.00
2022-08-19T01:31:58.604Z,98643.00
2022-08-19T01:32:58.591Z,98649.00
2022-08-19T01:33:58.625Z,98650.00
2022-08-19T01:34:58.646Z,98652.00
2022-08-19T01:35:58.677Z,98660.00
2022-08-19T01:36:58.713Z,98664.00
2022-08-19T01:37:58.760Z,98666.00
2022-08-19T01:38:58.746Z,98665.00
2022-08-19T01:39:58.874Z,98668.00
2022-08-19T01:40:58.777Z,98669.00
2022-08-19T01:41:58.793Z,98675.00
2022-08-19T01:42:58.853Z,98673.00
2022-08-19T01:44:17.114Z,98678.00
2022-08-19T01:44:58.832Z,98680.00
2022-08-19T01:45:58.868Z,98679.00
2022-08-19T01:46:58.921Z,98693.00
2022-08-19T01:48:01.512Z,98692.00
2022-08-19T01:48:58.908Z,98696.00
2022-08-19T01:49:58.921Z,98692.00
2022-08-19T01:50:58.908Z,98694.00
2022-08-19T01:51:58.920Z,98688.00
2022-08-19T01:53:05.956Z,98692.00
2022-08-19T01:53:58.942Z,98691.00
2022-08-19T01:54:58.952Z,98693.00
2022-08-19T01:55:58.971Z,98692.00
2022-08-19T01:56:58.999Z,98687.00
2022-08-19T01:57:58.989Z,98691.00
2022-08-19T01:58:59.016Z,98691.00
2022-08-19T01:59:59.031Z,98687.00
2022-08-19T02:00:59.150Z,98683.00
2022-08-19T02:01:59.089Z,98686.00
2022-08-19T02:02:59.122Z,98689.00
2022-08-19T02:03:59.131Z,98686.00
2022-08-19T02:04:59.141Z,98693.00
2022-08-19T02:05:59.153Z,98694.00
2022-08-19T02:06:59.184Z,98693.00
2022-08-19T02:07:59.200Z,98696.00
2022-08-19T02:08:59.218Z,98700.00
2022-08-19T02:09:59.252Z,98699.00
2022-08-19T02:10:59.279Z,98699.00
2022-08-19T02:11:59.291Z,98696.00
2022-08-19T02:12:59.287Z,98698.00
2022-08-19T02:13:59.296Z,98697.00
2022-08-19T02:14:59.348Z,98697.00
2022-08-19T02:15:59.310Z,98697.00
2022-08-19T02:16:59.332Z,98693.00
2022-08-19T02:17:59.365Z,98692.00
2022-08-19T02:18:59.380Z,98690.00
2022-08-19T02:19:59.401Z,98687.00
2022-08-19T02:20:59.383Z,98688.00
2022-08-19T02:21:59.428Z,98688.00
2022-08-19T02:22:59.429Z,98693.00
2022-08-19T02:23:59.437Z,98693.00
2022-08-19T02:24:59.489Z,98698.00
2022-08-19T02:25:59.497Z,98689.00
2022-08-19T02:26:59.513Z,98689.00
2022-08-19T02:27:59.507Z,98688.00
2022-08-19T02:28:59.509Z,98690.00
2022-08-19T02:29:59.530Z,98688.00
2022-08-19T02:30:59.561Z,98684.00
2022-08-19T02:31:59.551Z,98687.00
2022-08-19T02:32:59.618Z,98691.00
2022-08-19T02:33:59.571Z,98691.00
2022-08-19T02:34:59.592Z,98695.00
2022-08-19T02:35:59.621Z,98694.00
2022-08-19T02:37:03.178Z,98700.00
2022-08-19T02:37:59.673Z,98699.00
2022-08-19T02:38:59.702Z,98698.00
2022-08-19T02:39:59.794Z,98697.00
2022-08-19T02:40:59.760Z,98697.00
2022-08-19T02:41:59.758Z,98696.00
2022-08-19T02:42:59.770Z,98694.00
2022-08-19T02:44:29.304Z,98697.00
2022-08-19T02:44:59.847Z,98694.00
2022-08-19T02:45:59.845Z,98695.00
2022-08-19T02:46:59.829Z,98695.00
2022-08-19T02:47:59.843Z,98691.00
2022-08-19T02:48:59.859Z,98688.00
2022-08-19T02:49:59.848Z,98693.00
2022-08-19T02:50:59.894Z,98686.00
2022-08-19T02:51:59.914Z,98692.00
2022-08-19T02:52:59.894Z,98692.00
2022-08-19T02:53:59.899Z,98696.00
2022-08-19T02:54:59.899Z,98696.00
2022-08-19T02:55:59.942Z,98695.00
2022-08-19T02:57:00.003Z,98701.00
2022-08-19T02:57:59.961Z,98702.00
2022-08-19T02:58:59.987Z,98708.00
2022-08-19T03:00:00.098Z,98713.00
2022-08-19T03:01:00.136Z,98717.00
2022-08-19T03:02:00.080Z,98719.00
2022-08-19T03:03:00.177Z,98727.00
2022-08-19T03:04:00.115Z,98723.00
2022-08-19T03:05:00.157Z,98729.00
2022-08-19T03:06:00.111Z,98728.00
2022-08-19T03:07:10.903Z,98730.00
2022-08-19T03:08:00.168Z,98731.00
2022-08-19T03:09:00.218Z,98729.00
2022-08-19T03:10:00.253Z,98723.00
2022-08-19T03:11:00.192Z,98723.00
2022-08-19T03:12:00.207Z,98718.00
2022-08-19T03:13:00.237Z,98714.00
2022-08-19T03:14:00.279Z,98706.00
2022-08-19T03:15:00.269Z,98713.00
2022-08-19T03:16:00.242Z,98713.00
2022-08-19T03:17:00.234Z,98708.00
2022-08-19T03:18:00.258Z,98709.00
2022-08-19T03:19:00.317Z,98709.00
2022-08-19T03:20:00.329Z,98709.00
2022-08-19T03:21:00.310Z,98713.00
2022-08-19T03:22:00.324Z,98711.00
2022-08-19T03:23:00.352Z,98714.00
2022-08-19T03:24:00.369Z,98714.00
2022-08-19T03:25:00.416Z,98712.00
2022-08-19T03:26:15.783Z,98715.00
2022-08-19T03:27:00.414Z,98713.00
2022-08-19T03:28:00.448Z,98713.00
2022-08-19T03:29:00.466Z,98715.00
2022-08-19T03:30:00.497Z,98709.00
2022-08-19T03:31:01.447Z,98710.00
2022-08-19T03:32:00.503Z,98709.00
2022-08-19T03:33:00.525Z,98706.00
2022-08-19T03:34:00.542Z,98707.00
2022-08-19T03:35:00.588Z,98707.00
2022-08-19T03:36:00.575Z,98704.00
2022-08-19T03:37:00.608Z,98703.00
2022-08-19T03:38:00.633Z,98704.00
2022-08-19T03:39:00.657Z,98708.00
2022-08-19T03:40:00.734Z,98712.00
2022-08-19T03:41:01.599Z,98713.00
2022-08-19T03:42:29.273Z,98710.00
2022-08-19T03:43:01.049Z,98711.00
2022-08-19T03:44:00.669Z,98708.00
2022-08-19T03:45:00.727Z,98707.00
2022-08-19T03:46:00.695Z,98706.00
2022-08-19T03:47:00.706Z,98699.00
2022-08-19T03:48:00.718Z,98701.00
2022-08-19T03:49:00.741Z,98699.00
2022-08-19T03:50:00.778Z,98699.00
2022-08-19T03:51:00.770Z,98700.00
2022-08-19T03:52:00.793Z,98698.00
2022-08-19T03:53:00.803Z,98694.00
2022-08-19T03:54:00.824Z,98693.00
2022-08-19T03:55:00.867Z,98695.00
2022-08-19T03:56:00.851Z,98692.00
2022-08-19T03:57:00.880Z,98693.00
2022-08-19T03:58:00.892Z,98696.00
2022-08-19T03:59:00.909Z,98699.00
2022-08-19T04:00:12.735Z,98692.00
2022-08-19T04:01:00.937Z,98704.00
2022-08-19T04:02:00.924Z,98704.00
2022-08-19T04:03:01.243Z,98707.00
2022-08-19T04:04:00.904Z,98708.00
2022-08-19T04:05:00.933Z,98708.00
2022-08-19T04:06:00.992Z,98712.00
2022-08-19T04:07:00.960Z,98712.00
2022-08-19T04:08:00.964Z,98709.00
2022-08-19T04:09:00.972Z,98710.00
2022-08-19T04:10:01.022Z,98705.00
2022-08-19T04:11:01.004Z,98700.00
2022-08-19T04:12:01.024Z,98698.00
2022-08-19T04:13:01.048Z,98698.00
2022-08-19T04:14:01.066Z,98693.00
2022-08-19T04:15:01.111Z,98691.00
2022-08-19T04:16:01.091Z,98692.00
2022-08-19T04:17:01.186Z,98686.00
2022-08-19T04:18:01.124Z,98682.00
2022-08-19T04:19:01.154Z,98682.00
2022-08-19T04:20:01.179Z,98675.00
2022-08-19T04:21:01.207Z,98679.00
2022-08-19T04:22:01.218Z,98682.00
2022-08-19T04:23:01.242Z,98684.00
2022-08-19T04:24:01.253Z,98686.00
2022-08-19T04:25:01.255Z,98691.00
2022-08-19T04:26:01.287Z,98696.00
2022-08-19T04:27:01.284Z,98692.00
2022-08-19T04:28:01.331Z,98696.00
2022-08-19T04:29:01.303Z,98692.00
2022-08-19T04:30:01.321Z,98693.00
2022-08-19T04:31:01.304Z,98694.00
2022-08-19T04:32:09.120Z,98698.00
2022-08-19T04:33:01.349Z,98697.00
2022-08-19T04:34:01.392Z,98701.00
2022-08-19T04:35:17.689Z,98700.00
2022-08-19T04:36:01.446Z,98707.00
2022-08-19T04:37:01.471Z,98714.00
2022-08-19T04:38:01.497Z,98714.00
2022-08-19T04:39:01.503Z,98709.00
2022-08-19T04:40:02.417Z,98718.00
2022-08-19T04:41:01.528Z,98718.00
2022-08-19T04:42:01.579Z,98719.00
2022-08-19T04:43:01.574Z,98719.00
2022-08-19T04:44:04.402Z,98724.00
2022-08-19T04:45:01.626Z,98722.00
2022-08-19T04:46:01.607Z,98727.00
2022-08-19T04:47:01.645Z,98727.00
2022-08-19T04:48:26.932Z,98730.00
2022-08-19T04:49:01.683Z,98732.00
2022-08-19T04:50:01.790Z,98736.00
2022-08-19T04:51:01.700Z,98731.00
2022-08-19T04:52:01.727Z,98740.00
2022-08-19T04:53:01.759Z,98741.00
2022-08-19T04:54:01.769Z,98739.00
2022-08-19T04:55:01.798Z,98744.00
2022-08-19T04:56:01.807Z,98735.00
2022-08-19T04:57:01.834Z,98740.00
2022-08-19T04:58:01.853Z,98737.00
2022-08-19T04:59:01.857Z,98740.00
2022-08-19T05:00:01.876Z,98740.00
2022-08-19T05:02:27.811Z,98742.00
2022-08-19T05:03:30.575Z,98741.00
2022-08-19T05:04:27.822Z,98746.00
2022-08-19T05:05:27.843Z,98743.00
2022-08-19T05:06:27.827Z,98739.00
2022-08-19T05:07:27.851Z,98740.00
2022-08-19T05:08:31.081Z,98738.00
2022-08-19T05:09:27.896Z,98744.00
2022-08-19T05:10:27.939Z,98744.00
2022-08-19T05:11:27.929Z,98746.00
2022-08-19T05:12:29.017Z,98747.00
2022-08-19T05:13:27.917Z,98747.00
2022-08-19T05:14:27.944Z,98747.00
2022-08-19T05:15:27.972Z,98744.00
2022-08-19T05:16:27.997Z,98740.00
2022-08-19T05:17:30.276Z,98738.00
2022-08-19T05:18:28.073Z,98736.00
2022-08-19T05:19:28.073Z,98735.00
2022-08-19T05:20:28.099Z,98735.00
2022-08-19T05:21:28.092Z,98740.00
2022-08-19T05:22:28.116Z,98738.00
2022-08-19T05:23:28.137Z,98739.00
2022-08-19T05:24:28.153Z,98741.00
2022-08-19T05:25:28.166Z,98745.00
2022-08-19T05:26:28.200Z,98748.00
2022-08-19T05:27:28.232Z,98751.00
2022-08-19T05:28:28.234Z,98753.00
2022-08-19T05:29:33.400Z,98757.00
2022-08-19T05:30:46.040Z,98759.00
2022-08-19T05:31:28.300Z,98756.00
2022-08-19T05:32:28.281Z,98757.00
2022-08-19T05:33:28.279Z,98754.00
2022-08-19T05:34:28.302Z,98757.00
2022-08-19T05:35:28.332Z,98757.00
2022-08-19T05:36:28.368Z,98759.00
2022-08-19T05:37:28.349Z,98758.00
2022-08-19T05:38:28.366Z,98759.00
2022-08-19T05:39:28.554Z,98760.00
2022-08-19T05:40:28.422Z,98760.00
2022-08-19T05:41:28.446Z,98763.00
2022-08-19T05:42:28.468Z,98762.00
2022-08-19T05:43:28.485Z,98764.00
2022-08-19T05:44:28.525Z,98766.00
2022-08-19T05:45:28.549Z,98765.00
2022-08-19T05:46:28.548Z,98766.00
2022-08-19T05:47:28.564Z,98767.00
2022-08-19T05:48:28.612Z,98768.00
2022-08-19T05:49:28.623Z,98766.00
2022-08-19T05:50:28.645Z,98769.00
2022-08-19T05:51:29.396Z,98774.00
2022-08-19T05:52:28.682Z,98772.00
2022-08-19T05:53:28.708Z,98777.00
2022-08-19T05:54:28.734Z,98773.00
2022-08-19T05:55:28.763Z,98775.00
2022-08-19T05:56:28.735Z,98779.00
2022-08-19T05:57:28.749Z,98781.00
2022-08-19T05:58:28.778Z,98788.00
2022-08-19T05:59:28.765Z,98788.00
2022-08-19T06:00:28.789Z,98788.00
2022-08-19T06:01:28.781Z,98795.00
2022-08-19T06:02:28.847Z,98797.00
2022-08-19T06:03:28.777Z,98798.00
2022-08-19T06:04:28.819Z,98797.00
2022-08-19T06:05:28.857Z,98800.00
2022-08-19T06:06:28.870Z,98803.00
2022-08-19T06:07:28.885Z,98799.00
2022-08-19T06:08:34.133Z,98798.00
2022-08-19T06:09:28.887Z,98795.00
2022-08-19T06:10:28.942Z,98797.00
2022-08-19T06:11:28.914Z,98794.00
2022-08-19T06:12:28.970Z,98793.00
2022-08-19T06:13:28.942Z,98797.00
2022-08-19T06:14:28.956Z,98793.00
2022-08-19T06:15:28.986Z,98791.00
2022-08-19T06:16:29.022Z,98796.00
2022-08-19T06:17:29.044Z,98791.00
2022-08-19T06:18:29.066Z,98796.00
2022-08-19T06:19:29.084Z,98795.00
2022-08-19T06:20:54.133Z,98801.00
2022-08-19T06:21:29.147Z,98802.00
2022-08-19T06:22:29.164Z,98803.00
2022-08-19T06:23:29.165Z,98797.00
2022-08-19T06:24:29.185Z,98802.00
2022-08-19T06:25:30.604Z,98804.00
2022-08-19T06:26:29.228Z,98804.00
2022-08-19T06:27:29.244Z,98800.00
2022-08-19T06:28:29.250Z,98801.00
2022-08-19T06:29:29.271Z,98804.00
2022-08-19T06:30:29.294Z,98801.00
2022-08-19T06:31:29.349Z,98803.00
2022-08-19T06:32:29.309Z,98804.00
2022-08-19T06:33:29.345Z,98802.00
2022-08-19T06:34:29.351Z,98805.00
2022-08-19T06:35:29.398Z,98811.00
2022-08-19T06:36:29.412Z,98813.00
2022-08-19T06:37:29.432Z,98813.00
2022-08-19T06:38:29.445Z,98817.00
2022-08-19T06:39:29.559Z,98819.00
2022-08-19T06:40:29.483Z,98817.00
2022-08-19T06:41:29.491Z,98817.00
2022-08-19T06:42:29.514Z,98818.00
2022-08-19T06:43:29.539Z,98817.00
2022-08-19T06:44:30.462Z,98821.00
2022-08-19T06:45:34.878Z,98817.00
2022-08-19T06:46:29.589Z,98818.00
2022-08-19T06:47:29.587Z,98821.00
2022-08-19T06:48:29.611Z,98828.00
2022-08-19T06:49:29.625Z,98829.00
2022-08-19T06:50:29.661Z,98826.00
2022-08-19T06:51:29.643Z,98833.00
2022-08-19T06:52:29.619Z,98828.00
2022-08-19T06:53:29.633Z,98837.00
2022-08-19T06:54:30.757Z,98835.00
2022-08-19T06:55:29.679Z,98838.00
2022-08-19T06:56:29.690Z,98836.00
2022-08-19T06:57:29.714Z,98836.00
2022-08-19T06:58:29.752Z,98835.00
2022-08-19T06:59:29.762Z,98833.00
2022-08-19T07:00:32.942Z,98830.00
2022-08-19T07:01:29.798Z,98834.00
2022-08-19T07:02:29.814Z,98830.00
2022-08-19T07:03:29.831Z,98824.00
2022-08-19T07:04:30.716Z,98827.00
2022-08-19T07:05:29.918Z,98820.00
2022-08-19T07:06:44.006Z,98821.00
2022-08-19T07:07:29.926Z,98828.00
2022-08-19T07:08:30.256Z,98825.00
2022-08-19T07:09:29.943Z,98827.00
2022-08-19T07:10:29.948Z,98832.00
2022-08-19T07:11:29.925Z,98832.00
2022-08-19T07:12:30.501Z,98833.00
2022-08-19T07:13:29.975Z,98832.00
2022-08-19T07:14:29.991Z,98833.00
2022-08-19T07:15:30.004Z,98831.00
2022-08-19T07:16:30.026Z,98830.00
2022-08-19T07:17:30.043Z,98828.00
2022-08-19T07:18:30.056Z,98831.00
2022-08-19T07:19:30.096Z,98826.00
2022-08-19T07:20:30.117Z,98828.00
2022-08-19T07:21:30.123Z,98828.00
2022-08-19T07:22:30.139Z,98830.00
2022-08-19T07:23:30.180Z,98825.00
2022-08-19T07:24:33.566Z,98824.00
2022-08-19T07:25:32.364Z,98829.00
2022-08-19T07:26:30.175Z,98825.00
2022-08-19T07:27:30.184Z,98824.00
2022-08-19T07:28:30.432Z,98824.00
2022-08-19T07:29:30.228Z,98830.00
2022-08-19T07:30:30.207Z,98828.00
2022-08-19T07:31:31.236Z,98830.00
2022-08-19T07:32:30.242Z,98834.00
2022-08-19T07:33:30.233Z,98834.00
2022-08-19T07:34:30.261Z,98833.00
2022-08-19T07:35:30.260Z,98834.00
2022-08-19T07:36:30.297Z,98839.00
2022-08-19T07:37:33.085Z,98840.00
2022-08-19T07:38:30.284Z,98839.00
2022-08-19T07:39:30.386Z,98842.00
2022-08-19T07:40:30.304Z,98843.00
2022-08-19T07:41:30.312Z,98841.00
2022-08-19T07:42:30.288Z,98841.00
2022-08-19T07:43:34.829Z,98840.00
2022-08-19T07:44:30.411Z,98840.00
2022-08-19T07:45:30.355Z,98839.00
2022-08-19T07:46:30.378Z,98843.00
2022-08-19T07:47:48.810Z,98839.00
2022-08-19T07:48:30.439Z,98839.00
2022-08-19T07:49:30.458Z,98842.00
2022-08-19T07:50:30.484Z,98842.00
2022-08-19T07:51:36.956Z,98835.00
2022-08-19T07:52:30.545Z,98840.00
2022-08-19T07:53:30.532Z,98837.00
2022-08-19T07:54:30.558Z,98840.00
2022-08-19T07:55:42.377Z,98840.00
2022-08-19T07:56:30.648Z,98840.00
2022-08-19T07:57:30.603Z,98837.00
2022-08-19T07:58:30.625Z,98845.00
2022-08-19T07:59:30.634Z,98847.00
2022-08-19T08:00:30.653Z,98845.00
2022-08-19T08:01:30.737Z,98844.00
2022-08-19T08:02:30.684Z,98843.00
2022-08-19T08:03:30.722Z,98844.00
2022-08-19T08:04:30.741Z,98835.00
2022-08-19T08:05:30.765Z,98841.00
2022-08-19T08:06:30.790Z,98836.00
2022-08-19T08:07:31.537Z,98838.00
2022-08-19T08:08:30.769Z,98836.00
2022-08-19T08:09:30.778Z,98837.00
2022-08-19T08:10:30.807Z,98838.00
2022-08-19T08:11:30.834Z,98840.00
2022-08-19T08:12:34.630Z,98842.00
2022-08-19T08:13:30.861Z,98840.00
2022-08-19T08:14:35.209Z,98842.00
2022-08-19T08:15:30.892Z,98843.00
2022-08-19T08:16:30.929Z,98840.00
2022-08-19T08:17:49.570Z,98843.00
2022-08-19T08:18:30.960Z,98841.00
2022-08-19T08:19:30.995Z,98843.00
2022-08-19T08:20:31.018Z,98834.00
2022-08-19T08:21:31.165Z,98839.00
2022-08-19T08:22:31.045Z,98842.00
2022-08-19T08:23:31.079Z,98843.00
2022-08-19T08:24:31.062Z,98846.00
2022-08-19T08:25:32.495Z,98848.00
2022-08-19T08:26:31.073Z,98848.00
2022-08-19T08:27:31.104Z,98856.00
2022-08-19T08:28:31.118Z,98857.00
2022-08-19T08:29:35.120Z,98860.00
2022-08-19T08:30:32.603Z,98861.00
2022-08-19T08:31:31.181Z,98860.00
2022-08-19T08:32:31.167Z,98858.00
2022-08-19T08:33:34.526Z,98858.00
2022-08-19T08:34:31.227Z,98855.00
2022-08-19T08:35:31.229Z,98860.00
2022-08-19T08:36:31.274Z,98857.00
2022-08-19T08:37:31.285Z,98859.00
2022-08-19T08:38:34.494Z,98862.00
2022-08-19T08:39:31.386Z,98861.00
2022-08-19T08:40:31.327Z,98861.00
2022-08-19T08:41:31.345Z,98857.00
2022-08-19T08:42:31.345Z,98860.00
2022-08-19T08:43:32.527Z,98864.00
2022-08-19T08:44:31.346Z,98868.00
2022-08-19T08:45:40.853Z,98865.00
2022-08-19T08:46:32.494Z,98864.00
2022-08-19T08:47:31.392Z,98860.00
2022-08-19T08:48:31.398Z,98864.00
2022-08-19T08:49:31.422Z,98862.00
2022-08-19T08:50:31.426Z,98864.00
2022-08-19T08:51:34.965Z,98860.00
2022-08-19T08:52:31.960Z,98861.00
2022-08-19T08:53:34.414Z,98856.00
2022-08-19T08:54:31.471Z,98859.00
2022-08-19T08:55:37.107Z,98863.00
2022-08-19T08:57:37.614Z,98867.00
2022-08-19T08:58:31.509Z,98868.00
2022-08-19T08:59:31.585Z,98871.00
2022-08-19T09:00:31.569Z,98867.00
2022-08-19T09:01:31.679Z,98871.00
2022-08-19T09:02:31.582Z,98872.00
2022-08-19T09:03:31.811Z,98874.00
2022-08-19T09:04:31.627Z,98872.00
2022-08-19T09:05:37.668Z,98871.00
2022-08-19T09:06:31.638Z,98871.00
2022-08-19T09:07:35.327Z,98874.00
2022-08-19T09:08:31.672Z,98870.00
2022-08-19T09:09:31.706Z,98868.00
2022-08-19T09:10:31.735Z,98870.00
2022-08-19T09:11:42.386Z,98868.00
2022-08-19T09:12:31.723Z,98867.00
2022-08-19T09:13:31.746Z,98869.00
2022-08-19T09:14:49.838Z,98864.00
2022-08-19T09:15:33.587Z,98864.00
2022-08-19T09:16:31.821Z,98863.00
2022-08-19T09:17:32.157Z,98865.00
2022-08-19T09:18:31.883Z,98863.00
2022-08-19T09:19:31.850Z,98866.00
2022-08-19T09:20:31.837Z,98865.00
2022-08-19T09:21:34.185Z,98860.00
2022-08-19T09:22:31.846Z,98866.00
2022-08-19T09:23:31.829Z,98864.00
2022-08-19T09:24:31.829Z,98865.00
2022-08-19T09:25:31.849Z,98864.00
2022-08-19T09:26:47.816Z,98864.00
2022-08-19T09:27:42.017Z,98866.00
2022-08-19T09:28:31.937Z,98865.00
2022-08-19T09:29:31.927Z,98861.00
2022-08-19T09:30:31.960Z,98856.00
2022-08-19T09:31:31.994Z,98857.00
2022-08-19T09:32:31.976Z,98857.00
2022-08-19T09:33:31.989Z,98847.00
2022-08-19T09:34:32.003Z,98854.00
2022-08-19T09:35:32.019Z,98853.00
2022-08-19T09:36:35.323Z,98851.00
2022-08-19T09:37:32.053Z,98853.00
2022-08-19T09:38:32.054Z,98852.00
2022-08-19T09:39:36.142Z,98852.00
2022-08-19T09:40:35.448Z,98847.00
2022-08-19T09:41:32.085Z,98845.00
2022-08-19T09:42:35.313Z,98843.00
2022-08-19T09:43:33.800Z,98840.00
2022-08-19T09:44:32.118Z,98841.00
2022-08-19T09:45:32.120Z,98838.00
2022-08-19T09:46:32.153Z,98834.00
2022-08-19T09:47:32.180Z,98836.00
2022-08-19T09:48:32.221Z,98830.00
2022-08-19T09:49:32.223Z,98831.00
2022-08-19T09:50:32.236Z,98830.00
2022-08-19T09:51:32.245Z,98833.00
2022-08-19T09:52:32.729Z,98835.00
2022-08-19T09:53:32.302Z,98837.00
2022-08-19T09:54:32.293Z,98836.00
2022-08-19T09:55:32.767Z,98838.00
2022-08-19T09:56:32.284Z,98835.00
2022-08-19T09:57:32.306Z,98834.00
2022-08-19T09:58:32.349Z,98835.00
2022-08-19T09:59:33.267Z,98837.00
2022-08-19T10:00:32.343Z,98838.00
2022-08-19T10:01:32.452Z,98840.00
2022-08-19T10:02:32.353Z,98839.00
2022-08-19T10:03:32.366Z,98837.00
2022-08-19T10:04:32.339Z,98840.00
2022-08-19T10:05:32.368Z,98842.00
2022-08-19T10:06:46.086Z,98845.00
2022-08-19T10:07:36.407Z,98840.00
2022-08-19T10:08:32.443Z,98845.00
2022-08-19T10:09:33.702Z,98848.00
2022-08-19T10:10:32.438Z,98850.00
2022-08-19T10:11:39.458Z,98853.00
2022-08-19T10:12:32.482Z,98846.00
2022-08-19T10:13:32.537Z,98854.00
2022-08-19T10:14:32.541Z,98858.00
2022-08-19T10:15:32.546Z,98855.00
2022-08-19T10:16:32.567Z,98852.00
2022-08-19T10:17:33.624Z,98853.00
2022-08-19T10:18:32.597Z,98849.00
2022-08-19T10:19:32.571Z,98856.00
2022-08-19T10:20:32.587Z,98855.00
2022-08-19T10:21:32.577Z,98856.00
2022-08-19T10:22:32.597Z,98857.00
2022-08-19T10:23:33.615Z,98859.00
2022-08-19T10:24:32.604Z,98860.00
2022-08-19T10:25:32.584Z,98861.00
2022-08-19T10:26:32.604Z,98852.00
2022-08-19T10:27:32.622Z,98854.00
2022-08-19T10:28:32.656Z,98844.00
2022-08-19T10:29:33.547Z,98850.00
2022-08-19T10:30:32.699Z,98849.00
2022-08-19T10:32:00.328Z,98852.00
2022-08-19T10:32:34.411Z,98851.00
2022-08-19T10:33:38.835Z,98847.00
2022-08-19T10:34:32.695Z,98853.00
2022-08-19T10:35:32.721Z,98845.00
2022-08-19T10:36:32.723Z,98852.00
2022-08-19T10:37:32.724Z,98851.00
2022-08-19T10:38:33.092Z,98846.00
2022-08-19T10:39:42.451Z,98846.00
2022-08-19T10:40:32.906Z,98848.00
2022-08-19T10:41:32.838Z,98846.00
2022-08-19T10:42:32.860Z,98845.00
2022-08-19T10:43:32.915Z,98842.00
2022-08-19T10:44:32.869Z,98848.00
2022-08-19T10:45:32.915Z,98846.00
2022-08-19T10:46:32.925Z,98841.00
2022-08-19T10:47:32.963Z,98845.00
2022-08-19T10:48:32.945Z,98849.00
2022-08-19T10:49:32.975Z,98840.00
2022-08-19T10:50:33.018Z,98846.00
2022-08-19T10:51:33.025Z,98840.00
2022-08-19T10:52:33.025Z,98845.00
2022-08-19T10:53:33.041Z,98842.00
2022-08-19T10:54:33.431Z,98843.00
2022-08-19T10:55:33.063Z,98846.00
2022-08-19T10:56:33.091Z,98842.00
2022-08-19T10:57:52.317Z,98844.00
2022-08-19T10:58:33.139Z,98844.00
2022-08-19T10:59:36.130Z,98844.00
2022-08-19T11:00:33.179Z,98846.00
2022-08-19T11:01:33.234Z,98843.00
2022-08-19T11:02:33.168Z,98840.00
2022-08-19T11:03:33.184Z,98844.00
2022-08-19T11:04:33.220Z,98835.00
2022-08-19T11:05:39.758Z,98835.00
2022-08-19T11:06:33.258Z,98829.00
2022-08-19T11:07:33.233Z,98828.00
2022-08-19T11:08:33.249Z,98827.00
2022-08-19T11:09:34.177Z,98825.00
2022-08-19T11:10:33.310Z,98827.00
2022-08-19T11:11:33.280Z,98826.00
2022-08-19T11:12:33.297Z,98828.00
2022-08-19T11:13:33.327Z,98823.00
2022-08-19T11:14:34.228Z,98825.00
2022-08-19T11:15:33.350Z,98827.00
2022-08-19T11:16:33.391Z,98825.00
2022-08-19T11:17:33.345Z,98826.00
2022-08-19T11:18:33.379Z,98835.00
2022-08-19T11:19:33.379Z,98834.00
2022-08-19T11:20:33.427Z,98838.00
2022-08-19T11:21:33.406Z,98840.00
2022-08-19T11:22:39.023Z,98836.00
2022-08-19T11:23:33.493Z,98842.00
2022-08-19T11:24:33.453Z,98842.00
2022-08-19T11:25:33.484Z,98842.00
2022-08-19T11:26:33.515Z,98843.00
2022-08-19T11:27:33.546Z,98846.00
2022-08-19T11:28:33.551Z,98844.00
2022-08-19T11:29:33.568Z,98838.00
2022-08-19T11:30:33.596Z,98840.00
2022-08-19T11:31:33.625Z,98843.00
2022-08-19T11:32:33.635Z,98841.00
2022-08-19T11:33:33.767Z,98833.00
2022-08-19T11:34:33.637Z,98836.00
2022-08-19T11:35:33.658Z,98835.00
2022-08-19T11:36:33.698Z,98838.00
2022-08-19T11:37:33.665Z,98834.00
2022-08-19T11:38:33.662Z,98833.00
2022-08-19T11:39:33.763Z,98839.00
2022-08-19T11:40:33.723Z,98828.00
2022-08-19T11:41:33.717Z,98831.00
2022-08-19T11:42:33.779Z,98832.00
2022-08-19T11:43:37.319Z,98833.00
2022-08-19T11:44:33.752Z,98827.00
2022-08-19T11:45:33.758Z,98828.00
2022-08-19T11:46:33.741Z,98833.00
2022-08-19T11:47:33.769Z,98829.00